Time;durP1;ratioP1;P1;durP2;ratioP2;P2;SDS_P1;SDS_P2;PMS_P1;PMS_P2;Temp;Humidity;BMP_temperature;BMP_pressure;BME280_temperature;BME280_humidity;BME280_pressure;Samples;Min_cycle;Max_cycle;Signal;HPM_P1;HPM_P2
2023/05/08 00:00:24;;;;;;;17.95;16.05;;;;;;;;;;5065353;28;20514;-76
2023/05/08 00:02:50;;;;;;;20.08;18.10;;;;;;;;;;5066512;28;20063;-76
2023/05/08 00:05:16;;;;;;;18.70;16.90;;;;;;;;;;5069952;28;20047;-75
2023/05/08 00:07:42;;;;;;;18.88;16.95;;;;;;;;;;5086435;28;20040;-74
2023/05/08 00:10:08;;;;;;;19.27;17.38;;;;;;;;;;5094080;28;20048;-75
2023/05/08 00:12:35;;;;;;;18.92;17.02;;;;;;;;;;5072531;28;20507;-75
2023/05/08 00:15:01;;;;;;;18.65;16.85;;;;;;;;;;5093929;28;20548;-76
2023/05/08 00:17:27;;;;;;;19.70;17.10;;;;;;;;;;5083683;28;20032;-76
2023/05/08 00:19:54;;;;;;;19.83;17.83;;;;;;;;;;5077180;28;20071;-75
2023/05/08 00:22:20;;;;;;;19.23;17.23;;;;;;;;;;5064468;28;20078;-76
2023/05/08 00:24:46;;;;;;;20.38;18.27;;;;;;;;;;5070172;28;20040;-76
2023/05/08 00:27:12;;;;;;;19.98;17.92;;;;;;;;;;5089938;28;20042;-76
2023/05/08 00:29:41;;;;;;;20.58;17.65;;;;;;;;;;5082341;28;20048;-75
2023/05/08 00:32:07;;;;;;;19.67;17.58;;;;;;;;;;5100743;28;20040;-75
2023/05/08 00:34:34;;;;;;;19.85;17.83;;;;;;;;;;5099119;27;20131;-75
2023/05/08 00:36:59;;;;;;;20.10;18.05;;;;;;;;;;5086095;27;20070;-75
2023/05/08 00:39:25;;;;;;;20.35;18.17;;;;;;;;;;5064743;28;20062;-75
2023/05/08 00:41:51;;;;;;;20.30;18.17;;;;;;;;;;5063437;28;20150;-76
2023/05/08 00:44:17;;;;;;;20.55;18.52;;;;;;;;;;5061494;28;20040;-76
2023/05/08 00:46:44;;;;;;;20.27;18.17;;;;;;;;;;5068226;28;20708;-75
2023/05/08 00:49:13;;;;;;;21.95;19.25;;;;;;;;;;5069387;28;20135;-74
2023/05/08 00:51:40;;;;;;;20.40;18.30;;;;;;;;;;5066743;28;20097;-76
2023/05/08 00:54:06;;;;;;;21.60;19.30;;;;;;;;;;5098387;27;20044;-76
2023/05/08 00:56:33;;;;;;;21.08;18.98;;;;;;;;;;5066765;28;20112;-75
2023/05/08 00:58:59;;;;;;;20.85;18.70;;;;;;;;;;5068161;28;20043;-75
2023/05/08 01:01:26;;;;;;;20.45;18.35;;;;;;;;;;5096978;27;20043;-76
2023/05/08 01:03:52;;;;;;;21.95;19.75;;;;;;;;;;5068127;28;20140;-76
2023/05/08 01:06:18;;;;;;;21.08;17.77;;;;;;;;;;5067403;28;20052;-76
2023/05/08 01:08:45;;;;;;;20.75;18.63;;;;;;;;;;5097932;27;20064;-76
2023/05/08 01:11:25;;;;;;;21.08;18.95;;;;;;;;;;5063973;28;20157;-75
2023/05/08 01:13:54;;;;;;;21.52;19.25;;;;;;;;;;5077841;28;20110;-75
2023/05/08 01:16:32;;;;;;;22.48;20.10;;;;;;;;;;5052761;28;20127;-76
2023/05/08 01:19:21;;;;;;;21.20;19.00;;;;;;;;;;5065892;28;20043;-76
2023/05/08 01:22:00;;;;;;;22.33;20.02;;;;;;;;;;5063207;28;20139;-76
2023/05/08 01:24:45;;;;;;;22.83;20.50;;;;;;;;;;5082232;28;20056;-75
2023/05/08 01:27:11;;;;;;;23.02;20.63;;;;;;;;;;5063078;28;20414;-74
2023/05/08 01:29:37;;;;;;;21.25;19.13;;;;;;;;;;5074505;28;20050;-75
2023/05/08 01:32:12;;;;;;;22.92;20.55;;;;;;;;;;5073444;28;20044;-75
2023/05/08 01:34:42;;;;;;;22.63;20.25;;;;;;;;;;5067083;28;20066;-75
2023/05/08 01:37:11;;;;;;;23.25;20.05;;;;;;;;;;5070199;28;20040;-75
2023/05/08 01:39:56;;;;;;;22.95;20.17;;;;;;;;;;5066205;28;20063;-76
2023/05/08 01:42:28;;;;;;;22.70;20.42;;;;;;;;;;5085756;28;20667;-75
2023/05/08 01:44:57;;;;;;;23.35;20.90;;;;;;;;;;5089104;28;20047;-76
2023/05/08 01:47:25;;;;;;;24.48;21.80;;;;;;;;;;5065205;28;20053;-75
2023/05/08 01:49:58;;;;;;;22.15;19.95;;;;;;;;;;5067340;28;20044;-76
2023/05/08 01:52:35;;;;;;;23.17;20.75;;;;;;;;;;5064552;28;20097;-75
2023/05/08 01:55:08;;;;;;;23.48;21.08;;;;;;;;;;5066776;28;20113;-75
2023/05/08 01:57:35;;;;;;;23.58;21.00;;;;;;;;;;5063402;28;20107;-76
2023/05/08 02:00:03;;;;;;;25.05;20.85;;;;;;;;;;5071032;28;20044;-75
2023/05/08 02:02:30;;;;;;;24.48;21.98;;;;;;;;;;5064645;28;20131;-76
2023/05/08 02:04:57;;;;;;;22.95;20.55;;;;;;;;;;5060921;28;20462;-75
2023/05/08 02:07:23;;;;;;;24.20;21.10;;;;;;;;;;5067321;28;20058;-76
2023/05/08 02:09:50;;;;;;;26.08;23.23;;;;;;;;;;5062988;28;20277;-75
2023/05/08 02:12:17;;;;;;;25.45;22.83;;;;;;;;;;5097088;28;20093;-74
2023/05/08 02:14:45;;;;;;;24.70;22.13;;;;;;;;;;5068347;28;20119;-76
2023/05/08 02:17:12;;;;;;;25.00;22.30;;;;;;;;;;5100315;28;20476;-75
2023/05/08 02:19:39;;;;;;;25.58;22.65;;;;;;;;;;5070747;28;20065;-75
2023/05/08 02:22:05;;;;;;;25.52;22.83;;;;;;;;;;5072035;28;20101;-75
2023/05/08 02:24:33;;;;;;;24.35;21.70;;;;;;;;;;5068707;28;20032;-74
2023/05/08 02:26:59;;;;;;;24.63;22.03;;;;;;;;;;5069814;28;20036;-76
2023/05/08 02:29:26;;;;;;;25.13;22.45;;;;;;;;;;5083494;28;20307;-75
2023/05/08 02:31:53;;;;;;;25.73;22.45;;;;;;;;;;5064263;28;20046;-76
2023/05/08 02:34:20;;;;;;;24.40;21.90;;;;;;;;;;5066667;28;20523;-75
2023/05/08 02:36:48;;;;;;;24.98;22.38;;;;;;;;;;5066890;28;20442;-75
2023/05/08 02:39:14;;;;;;;25.20;22.58;;;;;;;;;;5068019;28;20190;-75
2023/05/08 02:41:41;;;;;;;24.15;21.70;;;;;;;;;;5067004;28;20504;-76
2023/05/08 02:44:07;;;;;;;24.08;21.50;;;;;;;;;;5072603;28;20028;-75
2023/05/08 02:46:49;;;;;;;24.38;21.88;;;;;;;;;;5073294;28;20044;-75
2023/05/08 02:49:27;;;;;;;24.63;21.92;;;;;;;;;;5068608;28;20123;-76
2023/05/08 02:51:54;;;;;;;;;;;;;;;;;;5077086;28;20177;-75
2023/05/08 02:54:23;;;;;;;24.38;21.77;;;;;;;;;;5101478;27;20571;-75
2023/05/08 02:56:57;;;;;;;25.10;22.50;;;;;;;;;;5101542;27;20078;-75
2023/05/08 02:59:36;;;;;;;24.08;21.60;;;;;;;;;;5088819;27;20123;-74
2023/05/08 03:02:08;;;;;;;24.45;21.95;;;;;;;;;;5086336;27;20044;-74
2023/05/08 03:04:36;;;;;;;25.67;22.77;;;;;;;;;;5065636;28;20066;-76
2023/05/08 03:07:02;;;;;;;25.40;22.57;;;;;;;;;;5098816;27;20053;-75
2023/05/08 03:09:36;;;;;;;24.35;21.88;;;;;;;;;;5071637;28;20476;-75
2023/05/08 03:12:04;;;;;;;25.38;22.15;;;;;;;;;;5073934;28;20043;-75
2023/05/08 03:14:31;;;;;;;25.53;22.87;;;;;;;;;;5071905;28;20044;-75
2023/05/08 03:16:58;;;;;;;26.00;21.73;;;;;;;;;;5103092;27;20044;-75
2023/05/08 03:19:33;;;;;;;23.90;21.42;;;;;;;;;;5068120;28;20515;-76
2023/05/08 03:22:00;;;;;;;24.95;21.98;;;;;;;;;;5084720;28;20486;-75
2023/05/08 03:24:27;;;;;;;24.95;22.25;;;;;;;;;;5082082;28;20036;-75
2023/05/08 03:26:54;;;;;;;23.58;21.08;;;;;;;;;;5067103;28;20040;-74
2023/05/08 03:29:21;;;;;;;24.85;20.42;;;;;;;;;;5109955;27;20048;-75
2023/05/08 03:31:48;;;;;;;23.02;20.63;;;;;;;;;;5102565;27;20091;-75
2023/05/08 03:34:15;;;;;;;25.13;21.75;;;;;;;;;;5092395;28;20035;-75
2023/05/08 03:36:41;;;;;;;24.60;22.02;;;;;;;;;;5080461;28;20043;-75
2023/05/08 03:39:07;;;;;;;26.77;23.15;;;;;;;;;;5067867;28;20048;-76
2023/05/08 03:41:33;;;;;;;25.90;23.10;;;;;;;;;;5098436;28;20143;-75
2023/05/08 03:44:02;;;;;;;24.77;21.80;;;;;;;;;;5107665;27;20046;-75
2023/05/08 03:46:30;;;;;;;24.45;21.80;;;;;;;;;;5082927;28;20423;-76
2023/05/08 03:48:56;;;;;;;26.02;22.42;;;;;;;;;;5073098;28;20060;-75
2023/05/08 03:51:22;;;;;;;24.35;21.83;;;;;;;;;;5069791;28;20490;-75
2023/05/08 03:53:48;;;;;;;25.55;22.67;;;;;;;;;;5065324;28;20043;-75
2023/05/08 03:56:14;;;;;;;24.92;22.30;;;;;;;;;;5073261;28;20101;-75
2023/05/08 03:59:00;;;;;;;25.80;23.15;;;;;;;;;;5085262;27;20078;-76
2023/05/08 04:01:39;;;;;;;26.15;23.33;;;;;;;;;;5084129;28;20182;-75
2023/05/08 04:04:16;;;;;;;25.92;23.13;;;;;;;;;;5066464;28;20071;-75
2023/05/08 04:06:56;;;;;;;26.15;23.35;;;;;;;;;;5066452;28;20040;-75
2023/05/08 04:09:37;;;;;;;26.10;23.15;;;;;;;;;;5068030;28;20306;-75
2023/05/08 04:12:05;;;;;;;29.77;23.67;;;;;;;;;;5083944;28;20080;-75
2023/05/08 04:14:51;;;;;;;25.85;23.13;;;;;;;;;;5065966;28;20048;-75
2023/05/08 04:17:26;;;;;;;26.27;23.05;;;;;;;;;;5087703;27;20042;-75
2023/05/08 04:19:56;;;;;;;29.17;24.00;;;;;;;;;;5066033;28;20504;-75
2023/05/08 04:22:25;;;;;;;24.83;21.88;;;;;;;;;;5082697;28;20058;-74
2023/05/08 04:24:50;;;;;;;;;;;;;;;;;;5076545;28;20082;-76
2023/05/08 04:27:16;;;;;;;24.20;21.60;;;;;;;;;;5089078;28;19923;-76
2023/05/08 04:29:42;;;;;;;24.23;21.73;;;;;;;;;;5063645;28;20091;-75
2023/05/08 04:32:08;;;;;;;24.38;21.65;;;;;;;;;;5106939;27;20503;-76
2023/05/08 04:34:35;;;;;;;24.70;22.20;;;;;;;;;;5067220;28;20125;-77
2023/05/08 04:37:01;;;;;;;23.85;21.02;;;;;;;;;;5080860;28;20052;-76
2023/05/08 04:39:27;;;;;;;24.35;21.85;;;;;;;;;;5072219;28;20556;-76
2023/05/08 04:41:54;;;;;;;23.98;21.48;;;;;;;;;;5083970;28;20066;-75
2023/05/08 04:44:20;;;;;;;24.90;20.00;;;;;;;;;;5075112;28;20131;-75
2023/05/08 04:46:46;;;;;;;23.73;21.17;;;;;;;;;;5060308;28;20094;-75
2023/05/08 04:49:12;;;;;;;23.05;20.75;;;;;;;;;;5069431;28;20174;-75
2023/05/08 04:51:38;;;;;;;23.75;21.25;;;;;;;;;;5063519;28;20522;-75
2023/05/08 04:54:04;;;;;;;23.95;21.02;;;;;;;;;;5072884;28;20094;-75
2023/05/08 04:56:30;;;;;;;22.33;20.02;;;;;;;;;;5076066;28;20037;-75
2023/05/08 04:58:56;;;;;;;22.27;20.02;;;;;;;;;;5094138;27;20041;-75
2023/05/08 05:01:22;;;;;;;21.25;19.00;;;;;;;;;;5070490;28;20048;-75
2023/05/08 05:03:48;;;;;;;20.92;18.83;;;;;;;;;;5085643;28;20573;-76
2023/05/08 05:06:14;;;;;;;20.02;18.02;;;;;;;;;;5074706;28;20050;-75
2023/05/08 05:08:40;;;;;;;19.80;17.70;;;;;;;;;;5062245;28;20140;-75
2023/05/08 05:11:06;;;;;;;20.88;18.83;;;;;;;;;;5062787;28;20031;-75
2023/05/08 05:13:32;;;;;;;20.58;18.38;;;;;;;;;;5075307;28;20044;-76
2023/05/08 05:16:01;;;;;;;20.10;18.10;;;;;;;;;;5077495;28;20159;-75
2023/05/08 05:18:27;;;;;;;20.80;18.60;;;;;;;;;;5070486;28;20040;-75
2023/05/08 05:20:53;;;;;;;19.92;17.92;;;;;;;;;;5090492;27;20040;-75
2023/05/08 05:23:19;;;;;;;20.17;18.08;;;;;;;;;;5067409;28;20566;-74
2023/05/08 05:25:45;;;;;;;21.30;18.55;;;;;;;;;;5065159;28;20127;-75
2023/05/08 05:28:11;;;;;;;19.00;17.10;;;;;;;;;;5080886;28;20048;-76
2023/05/08 05:30:37;;;;;;;19.98;17.85;;;;;;;;;;5064659;28;20054;-75
2023/05/08 05:33:03;;;;;;;19.20;17.38;;;;;;;;;;5067117;28;20040;-75
2023/05/08 05:35:29;;;;;;;18.42;16.52;;;;;;;;;;5080355;28;20134;-76
2023/05/08 05:37:55;;;;;;;18.60;16.73;;;;;;;;;;5062853;28;20509;-75
2023/05/08 05:40:21;;;;;;;19.00;17.10;;;;;;;;;;5066314;28;20044;-75
2023/05/08 05:42:49;;;;;;;18.80;17.00;;;;;;;;;;5080012;28;20506;-75
2023/05/08 05:45:15;;;;;;;19.08;17.08;;;;;;;;;;5070221;28;20063;-75
2023/05/08 05:47:48;;;;;;;18.83;16.92;;;;;;;;;;5066105;28;20079;-75
2023/05/08 05:50:14;;;;;;;18.92;17.00;;;;;;;;;;5067490;28;20044;-75
2023/05/08 05:52:40;;;;;;;18.60;16.75;;;;;;;;;;5096997;28;20131;-75
2023/05/08 05:55:06;;;;;;;18.00;16.17;;;;;;;;;;5067728;28;20050;-75
2023/05/08 05:57:32;;;;;;;17.85;16.05;;;;;;;;;;5068024;28;20179;-75
2023/05/08 05:59:59;;;;;;;19.98;17.15;;;;;;;;;;5080886;28;20115;-79
2023/05/08 06:02:25;;;;;;;19.48;16.17;;;;;;;;;;5070204;28;20088;-76
2023/05/08 06:04:51;;;;;;;18.25;16.38;;;;;;;;;;5075628;28;20036;-76
2023/05/08 06:07:19;;;;;;;18.65;16.73;;;;;;;;;;5077935;28;20071;-77
2023/05/08 06:09:45;;;;;;;17.67;15.77;;;;;;;;;;5075851;28;20051;-75
2023/05/08 06:12:11;;;;;;;17.17;15.52;;;;;;;;;;5095627;27;20033;-76
2023/05/08 06:14:37;;;;;;;18.75;15.90;;;;;;;;;;5071257;28;20050;-76
2023/05/08 06:17:03;;;;;;;17.45;15.75;;;;;;;;;;5073672;28;20032;-76
2023/05/08 06:19:29;;;;;;;17.58;15.75;;;;;;;;;;5069062;28;20789;-76
2023/05/08 06:21:55;;;;;;;17.33;15.50;;;;;;;;;;5082544;28;20047;-76
2023/05/08 06:24:21;;;;;;;18.27;16.38;;;;;;;;;;5091542;27;20477;-76
2023/05/08 06:26:47;;;;;;;19.00;15.43;;;;;;;;;;5086375;27;20092;-77
2023/05/08 06:29:13;;;;;;;17.13;15.45;;;;;;;;;;5085637;27;20123;-75
2023/05/08 06:31:39;;;;;;;16.35;14.77;;;;;;;;;;5089585;27;20385;-77
2023/05/08 06:34:05;;;;;;;17.63;15.68;;;;;;;;;;5081351;27;20055;-77
2023/05/08 06:36:31;;;;;;;17.92;15.68;;;;;;;;;;5067291;28;20404;-77
2023/05/08 06:38:57;;;;;;;16.80;15.20;;;;;;;;;;5082547;27;20052;-76
2023/05/08 06:41:23;;;;;;;16.42;14.93;;;;;;;;;;5066065;28;20162;-76
2023/05/08 06:43:49;;;;;;;17.77;16.02;;;;;;;;;;5078614;28;20057;-75
2023/05/08 06:46:15;;;;;;;17.73;15.90;;;;;;;;;;5068307;28;20049;-75
2023/05/08 06:48:41;;;;;;;17.73;15.98;;;;;;;;;;5072933;28;20112;-74
2023/05/08 06:51:07;;;;;;;17.83;15.68;;;;;;;;;;5069194;28;20100;-75
2023/05/08 06:53:33;;;;;;;17.63;15.93;;;;;;;;;;5072384;28;20040;-73
2023/05/08 06:55:59;;;;;;;17.33;15.52;;;;;;;;;;5068283;28;20462;-73
2023/05/08 06:58:25;;;;;;;17.35;15.55;;;;;;;;;;5072976;28;20048;-74
2023/05/08 07:00:51;;;;;;;16.73;15.07;;;;;;;;;;5084041;27;20040;-74
2023/05/08 07:03:17;;;;;;;17.20;15.40;;;;;;;;;;5060671;28;20129;-72
2023/05/08 07:05:43;;;;;;;17.63;14.73;;;;;;;;;;5089962;27;20091;-73
2023/05/08 07:08:09;;;;;;;17.45;15.75;;;;;;;;;;5073951;28;20036;-73
2023/05/08 07:10:35;;;;;;;17.15;15.40;;;;;;;;;;5069510;28;20043;-74
2023/05/08 07:13:01;;;;;;;16.92;15.32;;;;;;;;;;5066688;28;20133;-74
2023/05/08 07:15:27;;;;;;;16.77;15.00;;;;;;;;;;5070520;28;20704;-73
2023/05/08 07:17:53;;;;;;;19.13;15.38;;;;;;;;;;5066705;28;20048;-74
2023/05/08 07:20:20;;;;;;;16.73;15.02;;;;;;;;;;5069631;28;20042;-74
2023/05/08 07:22:46;;;;;;;18.40;16.50;;;;;;;;;;5075184;28;20040;-74
2023/05/08 07:25:12;;;;;;;17.95;16.20;;;;;;;;;;5090818;27;20040;-74
2023/05/08 07:27:38;;;;;;;17.42;15.63;;;;;;;;;;5069381;28;20056;-74
2023/05/08 07:30:04;;;;;;;18.20;15.07;;;;;;;;;;5071196;28;20469;-73
2023/05/08 07:32:30;;;;;;;16.80;15.20;;;;;;;;;;5065686;28;20544;-74
2023/05/08 07:34:56;;;;;;;16.38;14.77;;;;;;;;;;5097069;27;20590;-73
2023/05/08 07:37:22;;;;;;;17.40;14.82;;;;;;;;;;5073107;28;20037;-74
2023/05/08 07:39:48;;;;;;;20.85;15.18;;;;;;;;;;5073050;28;20079;-74
2023/05/08 07:42:16;;;;;;;15.98;14.05;;;;;;;;;;5067693;28;20497;-74
2023/05/08 07:44:43;;;;;;;16.25;13.90;;;;;;;;;;5078908;28;20047;-74
2023/05/08 07:47:08;;;;;;;16.08;14.35;;;;;;;;;;5066561;28;20149;-74
2023/05/08 07:49:35;;;;;;;15.93;14.43;;;;;;;;;;5086101;27;20069;-74
2023/05/08 07:52:01;;;;;;;16.52;14.85;;;;;;;;;;5071550;28;20119;-73
2023/05/08 07:54:27;;;;;;;21.35;15.18;;;;;;;;;;5073782;28;20555;-74
2023/05/08 07:56:53;;;;;;;15.77;14.18;;;;;;;;;;5085503;27;20055;-74
2023/05/08 07:59:19;;;;;;;16.10;14.20;;;;;;;;;;5072492;28;20089;-73
2023/05/08 08:01:46;;;;;;;21.13;15.40;;;;;;;;;;5086283;27;20148;-73
2023/05/08 08:04:15;;;;;;;15.27;13.77;;;;;;;;;;5073815;28;20317;-73
2023/05/08 08:06:41;;;;;;;16.00;14.40;;;;;;;;;;5083611;27;20147;-73
2023/05/08 08:09:07;;;;;;;16.33;14.27;;;;;;;;;;5086906;27;20488;-74
2023/05/08 08:11:33;;;;;;;16.77;14.18;;;;;;;;;;5073762;28;20040;-74
2023/05/08 08:13:59;;;;;;;17.98;15.05;;;;;;;;;;5070141;28;20153;-76
2023/05/08 08:16:25;;;;;;;15.07;13.57;;;;;;;;;;5082315;28;20032;-77
2023/05/08 08:18:51;;;;;;;15.00;13.48;;;;;;;;;;5070283;28;20032;-74
2023/05/08 08:21:18;;;;;;;16.05;14.45;;;;;;;;;;5073983;28;20040;-74
2023/05/08 08:23:44;;;;;;;16.80;15.02;;;;;;;;;;5085423;28;20048;-76
2023/05/08 08:26:10;;;;;;;17.05;15.25;;;;;;;;;;5084868;28;20044;-75
2023/05/08 08:28:36;;;;;;;16.05;14.48;;;;;;;;;;5069588;28;20051;-76
2023/05/08 08:31:02;;;;;;;15.70;14.10;;;;;;;;;;5090691;27;20490;-76
2023/05/08 08:33:28;;;;;;;14.88;13.38;;;;;;;;;;5067860;28;20135;-75
2023/05/08 08:35:54;;;;;;;15.23;13.77;;;;;;;;;;5068685;28;20439;-75
2023/05/08 08:38:20;;;;;;;16.38;14.50;;;;;;;;;;5083558;28;20044;-76
2023/05/08 08:40:46;;;;;;;16.23;14.65;;;;;;;;;;5081583;28;20515;-76
2023/05/08 08:43:12;;;;;;;16.02;14.13;;;;;;;;;;5066387;28;20048;-77
2023/05/08 08:45:39;;;;;;;17.02;15.32;;;;;;;;;;5073308;28;20056;-77
2023/05/08 08:48:10;;;;;;;15.40;13.88;;;;;;;;;;5093744;27;20587;-75
2023/05/08 08:50:37;;;;;;;16.20;14.35;;;;;;;;;;5078589;28;20151;-75
2023/05/08 08:53:07;;;;;;;15.80;14.27;;;;;;;;;;5064770;28;20495;-76
2023/05/08 08:55:36;;;;;;;16.15;14.10;;;;;;;;;;5066678;28;20131;-76
2023/05/08 08:58:02;;;;;;;16.67;15.07;;;;;;;;;;5065494;28;20915;-76
2023/05/08 09:00:31;;;;;;;16.95;15.23;;;;;;;;;;5087587;28;20044;-77
2023/05/08 09:02:57;;;;;;;15.63;14.13;;;;;;;;;;5070506;28;20040;-76
2023/05/08 09:05:23;;;;;;;16.48;14.88;;;;;;;;;;5065960;28;20067;-76
2023/05/08 09:07:50;;;;;;;16.75;14.88;;;;;;;;;;5071271;28;20183;-76
2023/05/08 09:10:17;;;;;;;15.93;14.32;;;;;;;;;;5064257;28;20036;-76
2023/05/08 09:12:43;;;;;;;17.02;15.40;;;;;;;;;;5071515;28;20128;-76
2023/05/08 09:15:10;;;;;;;17.67;15.75;;;;;;;;;;5052491;28;20036;-76
2023/05/08 09:17:36;;;;;;;16.25;14.68;;;;;;;;;;5098687;27;20068;-76
2023/05/08 09:20:02;;;;;;;16.60;15.00;;;;;;;;;;5098016;28;20170;-76
2023/05/08 09:22:28;;;;;;;16.20;14.63;;;;;;;;;;5101527;27;20083;-76
2023/05/08 09:24:58;;;;;;;17.08;15.38;;;;;;;;;;5062287;28;20123;-76
2023/05/08 09:27:25;;;;;;;17.92;15.00;;;;;;;;;;5084464;28;20450;-75
2023/05/08 09:29:59;;;;;;;16.85;15.02;;;;;;;;;;5083175;28;20044;-75
2023/05/08 09:32:25;;;;;;;18.27;14.95;;;;;;;;;;5086102;27;20423;-76
2023/05/08 09:34:54;;;;;;;17.90;16.10;;;;;;;;;;5068340;28;20404;-76
2023/05/08 09:37:20;;;;;;;16.23;14.63;;;;;;;;;;5082526;28;20507;-76
2023/05/08 09:39:46;;;;;;;17.65;15.95;;;;;;;;;;5083646;28;20087;-75
2023/05/08 09:42:13;;;;;;;18.58;16.20;;;;;;;;;;5072432;28;20073;-76
2023/05/08 09:44:45;;;;;;;17.50;15.70;;;;;;;;;;5082449;28;20081;-77
2023/05/08 09:47:12;;;;;;;17.33;15.38;;;;;;;;;;5071723;28;20135;-76
2023/05/08 09:49:39;;;;;;;18.30;16.40;;;;;;;;;;5104164;27;20068;-77
2023/05/08 09:52:06;;;;;;;17.85;16.05;;;;;;;;;;5086593;28;20047;-76
2023/05/08 09:54:32;;;;;;;17.23;15.48;;;;;;;;;;5079462;28;20048;-75
2023/05/08 09:56:58;;;;;;;17.63;15.10;;;;;;;;;;5065656;28;20694;-75
2023/05/08 09:59:28;;;;;;;18.35;16.55;;;;;;;;;;5081986;28;20651;-74
2023/05/08 10:01:55;;;;;;;18.30;16.17;;;;;;;;;;5066728;28;20736;-76
2023/05/08 10:04:31;;;;;;;19.00;16.98;;;;;;;;;;5074078;28;20043;-76
2023/05/08 10:06:57;;;;;;;17.80;16.10;;;;;;;;;;5085980;27;20596;-75
2023/05/08 10:09:23;;;;;;;18.38;16.58;;;;;;;;;;5068201;28;20040;-76
2023/05/08 10:11:54;;;;;;;18.48;16.63;;;;;;;;;;5066446;28;20487;-76
2023/05/08 10:14:20;;;;;;;18.73;16.83;;;;;;;;;;5099942;27;20055;-76
2023/05/08 10:16:48;;;;;;;20.88;16.90;;;;;;;;;;5068847;28;20037;-75
2023/05/08 10:19:15;;;;;;;21.52;16.13;;;;;;;;;;5069931;28;20035;-76
2023/05/08 10:21:43;;;;;;;18.67;16.73;;;;;;;;;;5067007;28;20504;-75
2023/05/08 10:24:36;;;;;;;20.63;17.95;;;;;;;;;;5067754;28;20128;-76
2023/05/08 10:27:16;;;;;;;18.67;16.77;;;;;;;;;;5066807;28;20060;-75
2023/05/08 10:29:52;;;;;;;21.38;17.40;;;;;;;;;;5087875;28;20411;-76
2023/05/08 10:32:19;;;;;;;18.63;16.73;;;;;;;;;;5094361;27;20182;-76
2023/05/08 10:34:46;;;;;;;19.27;17.23;;;;;;;;;;5092408;28;20060;-75
2023/05/08 10:37:12;;;;;;;19.60;16.48;;;;;;;;;;5076717;28;20041;-76
2023/05/08 10:39:39;;;;;;;18.45;16.55;;;;;;;;;;5092539;27;20756;-76
2023/05/08 10:42:06;;;;;;;18.88;16.88;;;;;;;;;;5070097;28;20127;-77
2023/05/08 10:44:32;;;;;;;20.15;16.95;;;;;;;;;;5065762;28;20081;-76
2023/05/08 10:47:08;;;;;;;18.75;16.75;;;;;;;;;;5105860;27;20561;-75
2023/05/08 10:49:47;;;;;;;20.40;18.20;;;;;;;;;;5066977;28;20492;-76
2023/05/08 10:52:20;;;;;;;18.85;16.73;;;;;;;;;;5064522;28;20084;-75
2023/05/08 10:54:52;;;;;;;19.48;17.00;;;;;;;;;;5083999;27;21866;-75
2023/05/08 10:57:18;;;;;;;19.38;17.38;;;;;;;;;;5088771;27;20519;-76
2023/05/08 10:59:45;;;;;;;18.50;16.70;;;;;;;;;;5084619;27;20028;-76
2023/05/08 11:02:11;;;;;;;19.30;17.30;;;;;;;;;;5092867;27;20068;-78
2023/05/08 11:04:37;;;;;;;19.90;17.67;;;;;;;;;;5074940;28;20128;-79
2023/05/08 11:07:04;;;;;;;26.60;23.73;;;;;;;;;;5072539;28;20044;-77
2023/05/08 11:09:44;;;;;;;19.05;17.17;;;;;;;;;;5076264;28;20073;-77
2023/05/08 11:12:16;;;;;;;22.00;17.60;;;;;;;;;;5084938;28;20076;-78
2023/05/08 11:14:42;;;;;;;19.42;17.00;;;;;;;;;;5086161;28;20059;-77
2023/05/08 11:17:09;;;;;;;20.35;18.25;;;;;;;;;;5073579;28;20059;-77
2023/05/08 11:19:35;;;;;;;18.55;16.27;;;;;;;;;;5076933;28;20028;-77
2023/05/08 11:22:10;;;;;;;18.63;16.30;;;;;;;;;;5072976;28;20804;-76
2023/05/08 11:24:37;;;;;;;18.27;16.48;;;;;;;;;;5109779;27;20051;-75
2023/05/08 11:27:03;;;;;;;19.75;16.90;;;;;;;;;;5074832;28;20791;-76
2023/05/08 11:29:29;;;;;;;19.42;17.42;;;;;;;;;;5075849;28;20075;-76
2023/05/08 11:31:55;;;;;;;20.00;16.92;;;;;;;;;;5093372;28;20056;-77
2023/05/08 11:34:40;;;;;;;19.40;17.40;;;;;;;;;;5072416;28;20036;-76
2023/05/08 11:37:24;;;;;;;22.48;17.48;;;;;;;;;;5068222;28;20393;-76
2023/05/08 11:39:50;;;;;;;18.33;16.38;;;;;;;;;;5076148;28;20438;-79
2023/05/08 11:42:26;;;;;;;19.92;16.70;;;;;;;;;;5077184;28;20469;-79
2023/05/08 11:45:08;;;;;;;19.70;16.33;;;;;;;;;;5100062;28;20087;-81
2023/05/08 11:47:37;;;;;;;20.15;17.15;;;;;;;;;;5080494;28;20056;-81
2023/05/08 11:50:03;;;;;;;19.35;17.02;;;;;;;;;;5080282;28;20516;-79
2023/05/08 11:52:34;;;;;;;18.00;16.05;;;;;;;;;;5082991;28;20045;-78
2023/05/08 11:55:01;;;;;;;19.55;16.50;;;;;;;;;;5079434;28;20044;-79
2023/05/08 11:57:28;;;;;;;19.38;15.98;;;;;;;;;;5075474;28;20682;-78
2023/05/08 11:59:54;;;;;;;19.40;16.10;;;;;;;;;;5093507;27;20044;-80
2023/05/08 12:02:39;;;;;;;18.08;16.13;;;;;;;;;;5076159;28;20118;-80
2023/05/08 12:05:06;;;;;;;17.13;15.35;;;;;;;;;;5074252;28;20052;-80
2023/05/08 12:07:32;;;;;;;16.65;14.85;;;;;;;;;;5096619;27;20558;-76
2023/05/08 12:10:00;;;;;;;16.88;15.27;;;;;;;;;;5072435;28;20039;-76
2023/05/08 12:12:36;;;;;;;16.88;15.18;;;;;;;;;;5109697;27;20056;-78
2023/05/08 12:15:05;;;;;;;20.52;15.10;;;;;;;;;;5074783;28;20096;-80
2023/05/08 12:17:31;;;;;;;17.20;15.40;;;;;;;;;;5072059;28;20040;-79
2023/05/08 12:20:08;;;;;;;16.10;14.48;;;;;;;;;;5093097;27;20036;-75
2023/05/08 12:22:34;;;;;;;15.83;14.23;;;;;;;;;;5070239;28;20123;-77
2023/05/08 12:25:05;;;;;;;19.65;15.13;;;;;;;;;;5092358;28;20048;-77
2023/05/08 12:27:31;;;;;;;16.05;14.32;;;;;;;;;;5075272;27;20052;-76
2023/05/08 12:29:57;;;;;;;16.77;14.98;;;;;;;;;;5104225;27;20966;-77
2023/05/08 12:32:23;;;;;;;16.85;14.27;;;;;;;;;;5068901;28;20025;-79
2023/05/08 12:34:51;;;;;;;14.98;13.38;;;;;;;;;;5073985;28;20051;-77
2023/05/08 12:37:26;;;;;;;12.55;11.25;;;;;;;;;;5088650;28;20564;-77
2023/05/08 12:39:52;;;;;;;13.65;9.85;;;;;;;;;;5073241;28;20085;-77
2023/05/08 12:42:18;;;;;;;11.10;10.00;;;;;;;;;;5075557;28;20040;-76
2023/05/08 12:44:51;;;;;;;11.38;10.02;;;;;;;;;;5089778;28;20051;-77
2023/05/08 12:47:20;;;;;;;10.00;8.40;;;;;;;;;;5075902;28;20410;-76
2023/05/08 12:49:51;;;;;;;10.30;7.47;;;;;;;;;;5075009;28;20036;-77
2023/05/08 12:52:18;;;;;;;11.57;6.93;;;;;;;;;;5076068;28;20046;-75
2023/05/08 12:54:48;;;;;;;9.43;8.43;;;;;;;;;;5080850;28;20051;-76
2023/05/08 12:57:18;;;;;;;13.23;8.52;;;;;;;;;;5075213;28;20127;-78
2023/05/08 12:59:44;;;;;;;12.98;8.15;;;;;;;;;;5108325;27;20062;-77
2023/05/08 13:02:14;;;;;;;12.15;9.07;;;;;;;;;;5070263;28;20036;-76
2023/05/08 13:04:40;;;;;;;10.90;8.93;;;;;;;;;;5072736;28;20056;-77
2023/05/08 13:07:06;;;;;;;11.18;9.15;;;;;;;;;;5073701;28;20507;-76
2023/05/08 13:09:32;;;;;;;11.85;9.43;;;;;;;;;;5072834;28;20102;-76
2023/05/08 13:11:58;;;;;;;12.10;9.10;;;;;;;;;;5062644;28;20043;-77
2023/05/08 13:14:24;;;;;;;9.50;8.40;;;;;;;;;;5076948;28;20052;-76
2023/05/08 13:16:50;;;;;;;12.82;8.52;;;;;;;;;;5106087;27;20036;-76
2023/05/08 13:19:17;;;;;;;12.75;9.45;;;;;;;;;;5073429;28;20395;-76
2023/05/08 13:21:46;;;;;;;11.38;9.10;;;;;;;;;;5065826;28;20040;-76
2023/05/08 13:24:12;;;;;;;9.13;8.23;;;;;;;;;;5075701;28;20087;-77
2023/05/08 13:26:38;;;;;;;11.95;8.50;;;;;;;;;;5105075;27;20040;-76
2023/05/08 13:29:04;;;;;;;12.98;10.68;;;;;;;;;;5067161;28;20557;-77
2023/05/08 13:31:30;;;;;;;31.38;24.67;;;;;;;;;;5070539;28;20040;-76
2023/05/08 13:33:56;;;;;;;11.15;9.45;;;;;;;;;;5083614;28;20041;-76
2023/05/08 13:36:23;;;;;;;12.43;9.95;;;;;;;;;;5074005;28;20040;-75
2023/05/08 13:38:53;;;;;;;11.52;9.75;;;;;;;;;;5065565;28;20044;-75
2023/05/08 13:41:19;;;;;;;12.15;9.60;;;;;;;;;;5060576;28;20040;-74
2023/05/08 13:43:45;;;;;;;10.82;9.10;;;;;;;;;;5081144;28;20043;-76
2023/05/08 13:46:10;;;;;;;11.23;8.88;;;;;;;;;;5061500;28;20158;-75
2023/05/08 13:48:36;;;;;;;11.27;8.90;;;;;;;;;;5082675;28;20056;-75
2023/05/08 13:51:02;;;;;;;13.52;9.38;;;;;;;;;;5064372;28;20621;-74
2023/05/08 13:53:28;;;;;;;10.43;9.27;;;;;;;;;;5072703;28;20053;-74
2023/05/08 13:55:54;;;;;;;13.00;8.73;;;;;;;;;;5087769;28;20044;-74
2023/05/08 13:58:21;;;;;;;11.45;10.07;;;;;;;;;;5074743;28;20488;-74
2023/05/08 14:00:48;;;;;;;10.95;9.20;;;;;;;;;;5078126;28;20040;-74
2023/05/08 14:03:14;;;;;;;11.00;9.23;;;;;;;;;;5073415;28;20127;-75
2023/05/08 14:05:40;;;;;;;11.27;8.93;;;;;;;;;;5084539;28;20078;-76
2023/05/08 14:08:06;;;;;;;10.77;8.43;;;;;;;;;;5073046;28;20127;-76
2023/05/08 14:10:32;;;;;;;11.43;9.38;;;;;;;;;;5108620;27;20044;-76
2023/05/08 14:12:58;;;;;;;10.35;9.25;;;;;;;;;;5110837;28;20487;-75
2023/05/08 14:15:24;;;;;;;12.00;9.75;;;;;;;;;;5074697;28;20126;-78
2023/05/08 14:17:50;;;;;;;11.18;9.98;;;;;;;;;;5081256;28;20387;-78
2023/05/08 14:20:17;;;;;;;12.80;11.30;;;;;;;;;;5105641;28;20051;-78
2023/05/08 14:22:43;;;;;;;11.82;10.63;;;;;;;;;;5075464;28;20048;-78